sensor_id;sensor_type;location;lat;lon;timestamp;P1;durP1;ratioP1;P2;durP2;ratioP2
29432;SDS011;16405;53.964;13.448;2024-02-28T00:00:09;75.60;;;19.70;;
29432;SDS011;16405;53.964;13.448;2024-02-28T00:02:50;89.20;;;22.33;;
29432;SDS011;16405;53.964;13.448;2024-02-28T00:05:15;91.13;;;22.13;;
29432;SDS011;16405;53.964;13.448;2024-02-28T00:07:41;88.75;;;22.77;;
29432;SDS011;16405;53.964;13.448;2024-02-28T00:10:16;104.88;;;23.23;;
29432;SDS011;16405;53.964;13.448;2024-02-28T00:12:42;96.68;;;23.60;;
29432;SDS011;16405;53.964;13.448;2024-02-28T00:15:08;116.32;;;24.35;;
29432;SDS011;16405;53.964;13.448;2024-02-28T00:17:41;130.73;;;25.20;;
29432;SDS011;16405;53.964;13.448;2024-02-28T00:20:07;88.75;;;21.95;;
29432;SDS011;16405;53.964;13.448;2024-02-28T00:22:37;74.95;;;19.98;;
29432;SDS011;16405;53.964;13.448;2024-02-28T00:25:11;66.80;;;18.45;;
29432;SDS011;16405;53.964;13.448;2024-02-28T00:27:38;55.20;;;17.67;;
29432;SDS011;16405;53.964;13.448;2024-02-28T00:30:04;59.03;;;16.45;;
29432;SDS011;16405;53.964;13.448;2024-02-28T00:32:31;58.15;;;17.05;;
29432;SDS011;16405;53.964;13.448;2024-02-28T00:35:05;55.28;;;15.93;;
29432;SDS011;16405;53.964;13.448;2024-02-28T00:37:32;82.63;;;20.52;;
29432;SDS011;16405;53.964;13.448;2024-02-28T00:39:58;73.03;;;20.00;;
29432;SDS011;16405;53.964;13.448;2024-02-28T00:42:33;79.00;;;20.45;;
29432;SDS011;16405;53.964;13.448;2024-02-28T00:44:59;79.85;;;20.73;;
29432;SDS011;16405;53.964;13.448;2024-02-28T00:47:24;74.35;;;21.52;;
29432;SDS011;16405;53.964;13.448;2024-02-28T00:49:51;66.97;;;18.63;;
29432;SDS011;16405;53.964;13.448;2024-02-28T00:52:24;62.45;;;17.70;;
29432;SDS011;16405;53.964;13.448;2024-02-28T00:54:50;49.30;;;16.20;;
29432;SDS011;16405;53.964;13.448;2024-02-28T00:57:16;60.78;;;17.92;;
29432;SDS011;16405;53.964;13.448;2024-02-28T00:59:43;60.28;;;17.77;;
29432;SDS011;16405;53.964;13.448;2024-02-28T01:02:19;68.50;;;19.92;;
29432;SDS011;16405;53.964;13.448;2024-02-28T01:04:46;56.00;;;18.33;;
29432;SDS011;16405;53.964;13.448;2024-02-28T01:07:20;57.13;;;17.80;;
29432;SDS011;16405;53.964;13.448;2024-02-28T01:09:46;63.88;;;18.40;;
29432;SDS011;16405;53.964;13.448;2024-02-28T01:12:11;67.07;;;18.42;;
29432;SDS011;16405;53.964;13.448;2024-02-28T01:14:37;76.93;;;19.23;;
29432;SDS011;16405;53.964;13.448;2024-02-28T01:17:03;72.75;;;18.67;;
29432;SDS011;16405;53.964;13.448;2024-02-28T01:19:38;72.60;;;19.02;;
29432;SDS011;16405;53.964;13.448;2024-02-28T01:22:04;78.78;;;19.05;;
29432;SDS011;16405;53.964;13.448;2024-02-28T01:24:30;93.20;;;20.60;;
29432;SDS011;16405;53.964;13.448;2024-02-28T01:27:01;114.18;;;20.08;;
29432;SDS011;16405;53.964;13.448;2024-02-28T01:29:26;326.38;;;28.50;;
29432;SDS011;16405;53.964;13.448;2024-02-28T01:31:52;393.23;;;27.27;;
29432;SDS011;16405;53.964;13.448;2024-02-28T01:34:18;370.08;;;29.42;;
29432;SDS011;16405;53.964;13.448;2024-02-28T01:36:44;432.30;;;31.15;;
29432;SDS011;16405;53.964;13.448;2024-02-28T01:39:10;429.08;;;30.33;;
29432;SDS011;16405;53.964;13.448;2024-02-28T01:41:36;343.02;;;26.88;;
29432;SDS011;16405;53.964;13.448;2024-02-28T01:44:14;338.52;;;27.15;;
29432;SDS011;16405;53.964;13.448;2024-02-28T01:46:48;377.00;;;24.90;;
29432;SDS011;16405;53.964;13.448;2024-02-28T01:49:14;439.20;;;31.23;;
29432;SDS011;16405;53.964;13.448;2024-02-28T01:51:42;224.75;;;19.55;;
29432;SDS011;16405;53.964;13.448;2024-02-28T01:54:15;467.52;;;30.08;;
29432;SDS011;16405;53.964;13.448;2024-02-28T01:56:41;413.40;;;29.98;;
29432;SDS011;16405;53.964;13.448;2024-02-28T01:59:08;447.92;;;27.90;;
29432;SDS011;16405;53.964;13.448;2024-02-28T02:01:45;318.58;;;28.10;;
29432;SDS011;16405;53.964;13.448;2024-02-28T02:04:11;350.00;;;27.80;;
29432;SDS011;16405;53.964;13.448;2024-02-28T02:06:37;423.65;;;28.70;;
29432;SDS011;16405;53.964;13.448;2024-02-28T02:09:12;292.17;;;22.80;;
29432;SDS011;16405;53.964;13.448;2024-02-28T02:11:38;491.90;;;27.98;;
29432;SDS011;16405;53.964;13.448;2024-02-28T02:14:04;395.67;;;28.02;;
29432;SDS011;16405;53.964;13.448;2024-02-28T02:16:30;433.17;;;27.45;;
29432;SDS011;16405;53.964;13.448;2024-02-28T02:19:05;168.00;;;19.83;;
29432;SDS011;16405;53.964;13.448;2024-02-28T02:21:57;172.63;;;20.52;;
29432;SDS011;16405;53.964;13.448;2024-02-28T02:24:23;179.15;;;20.85;;
29432;SDS011;16405;53.964;13.448;2024-02-28T02:26:49;108.18;;;17.13;;
29432;SDS011;16405;53.964;13.448;2024-02-28T02:29:17;134.02;;;17.45;;
29432;SDS011;16405;53.964;13.448;2024-02-28T02:31:43;122.88;;;18.92;;
29432;SDS011;16405;53.964;13.448;2024-02-28T02:34:16;118.10;;;17.05;;
29432;SDS011;16405;53.964;13.448;2024-02-28T02:36:42;102.90;;;17.60;;
29432;SDS011;16405;53.964;13.448;2024-02-28T02:39:08;120.18;;;18.02;;
29432;SDS011;16405;53.964;13.448;2024-02-28T02:41:34;105.45;;;17.83;;
29432;SDS011;16405;53.964;13.448;2024-02-28T02:44:08;142.20;;;17.38;;
29432;SDS011;16405;53.964;13.448;2024-02-28T02:46:34;108.60;;;17.23;;
29432;SDS011;16405;53.964;13.448;2024-02-28T02:49:00;93.85;;;16.17;;
29432;SDS011;16405;53.964;13.448;2024-02-28T02:51:26;113.82;;;17.15;;
29432;SDS011;16405;53.964;13.448;2024-02-28T02:53:53;101.18;;;15.18;;
29432;SDS011;16405;53.964;13.448;2024-02-28T02:56:24;123.15;;;16.67;;
29432;SDS011;16405;53.964;13.448;2024-02-28T02:58:50;178.30;;;18.48;;
29432;SDS011;16405;53.964;13.448;2024-02-28T03:01:16;121.00;;;16.15;;
29432;SDS011;16405;53.964;13.448;2024-02-28T03:03:42;165.23;;;18.55;;
29432;SDS011;16405;53.964;13.448;2024-02-28T03:06:10;131.32;;;17.92;;
29432;SDS011;16405;53.964;13.448;2024-02-28T03:08:38;152.30;;;18.42;;
29432;SDS011;16405;53.964;13.448;2024-02-28T03:11:04;212.18;;;19.42;;
29432;SDS011;16405;53.964;13.448;2024-02-28T03:13:33;163.80;;;18.20;;
29432;SDS011;16405;53.964;13.448;2024-02-28T03:15:59;174.60;;;19.50;;
29432;SDS011;16405;53.964;13.448;2024-02-28T03:18:33;178.00;;;20.98;;
29432;SDS011;16405;53.964;13.448;2024-02-28T03:20:58;179.35;;;18.90;;
29432;SDS011;16405;53.964;13.448;2024-02-28T03:23:24;170.23;;;19.40;;
29432;SDS011;16405;53.964;13.448;2024-02-28T03:25:50;147.15;;;17.98;;
29432;SDS011;16405;53.964;13.448;2024-02-28T03:28:25;167.45;;;18.67;;
29432;SDS011;16405;53.964;13.448;2024-02-28T03:30:51;219.07;;;20.48;;
29432;SDS011;16405;53.964;13.448;2024-02-28T03:33:17;158.70;;;18.52;;
29432;SDS011;16405;53.964;13.448;2024-02-28T03:35:43;153.63;;;17.55;;
29432;SDS011;16405;53.964;13.448;2024-02-28T03:38:08;196.20;;;18.90;;
29432;SDS011;16405;53.964;13.448;2024-02-28T03:40:39;197.05;;;20.45;;
29432;SDS011;16405;53.964;13.448;2024-02-28T03:43:05;275.58;;;22.15;;
29432;SDS011;16405;53.964;13.448;2024-02-28T03:45:36;262.95;;;21.92;;
29432;SDS011;16405;53.964;13.448;2024-02-28T03:48:06;310.08;;;23.88;;
29432;SDS011;16405;53.964;13.448;2024-02-28T03:50:32;318.83;;;23.23;;
29432;SDS011;16405;53.964;13.448;2024-02-28T03:52:58;270.63;;;23.13;;
29432;SDS011;16405;53.964;13.448;2024-02-28T03:55:24;297.48;;;22.67;;
29432;SDS011;16405;53.964;13.448;2024-02-28T03:57:50;388.23;;;24.98;;
29432;SDS011;16405;53.964;13.448;2024-02-28T04:00:16;381.83;;;24.13;;
29432;SDS011;16405;53.964;13.448;2024-02-28T04:02:46;264.70;;;19.27;;
29432;SDS011;16405;53.964;13.448;2024-02-28T04:05:11;339.63;;;21.92;;
29432;SDS011;16405;53.964;13.448;2024-02-28T04:07:37;286.58;;;18.38;;
29432;SDS011;16405;53.964;13.448;2024-02-28T04:10:03;275.50;;;20.60;;
29432;SDS011;16405;53.964;13.448;2024-02-28T04:12:30;244.82;;;17.17;;
29432;SDS011;16405;53.964;13.448;2024-02-28T04:15:05;261.83;;;17.88;;
29432;SDS011;16405;53.964;13.448;2024-02-28T04:17:31;284.10;;;20.17;;
29432;SDS011;16405;53.964;13.448;2024-02-28T04:19:57;206.98;;;18.63;;
29432;SDS011;16405;53.964;13.448;2024-02-28T04:22:23;239.40;;;17.98;;
29432;SDS011;16405;53.964;13.448;2024-02-28T04:24:54;278.08;;;18.95;;
29432;SDS011;16405;53.964;13.448;2024-02-28T04:27:20;230.35;;;18.20;;
29432;SDS011;16405;53.964;13.448;2024-02-28T04:29:46;269.73;;;18.05;;
29432;SDS011;16405;53.964;13.448;2024-02-28T04:32:12;208.82;;;17.63;;
29432;SDS011;16405;53.964;13.448;2024-02-28T04:34:38;215.82;;;17.75;;
29432;SDS011;16405;53.964;13.448;2024-02-28T04:37:12;270.23;;;18.90;;
29432;SDS011;16405;53.964;13.448;2024-02-28T04:39:39;286.10;;;19.27;;
29432;SDS011;16405;53.964;13.448;2024-02-28T04:42:05;243.48;;;18.92;;
29432;SDS011;16405;53.964;13.448;2024-02-28T04:44:39;226.32;;;17.90;;
29432;SDS011;16405;53.964;13.448;2024-02-28T04:47:05;216.35;;;17.20;;
29432;SDS011;16405;53.964;13.448;2024-02-28T04:49:31;259.25;;;18.40;;
29432;SDS011;16405;53.964;13.448;2024-02-28T04:51:57;242.30;;;17.13;;
29432;SDS011;16405;53.964;13.448;2024-02-28T04:54:23;199.10;;;16.55;;
29432;SDS011;16405;53.964;13.448;2024-02-28T04:56:54;238.73;;;17.17;;
29432;SDS011;16405;53.964;13.448;2024-02-28T04:59:20;171.18;;;14.90;;
29432;SDS011;16405;53.964;13.448;2024-02-28T05:01:46;98.15;;;12.93;;
29432;SDS011;16405;53.964;13.448;2024-02-28T05:04:12;87.30;;;12.23;;
29432;SDS011;16405;53.964;13.448;2024-02-28T05:06:38;108.45;;;13.77;;
29432;SDS011;16405;53.964;13.448;2024-02-28T05:09:07;83.53;;;11.27;;
29432;SDS011;16405;53.964;13.448;2024-02-28T05:11:35;87.95;;;11.38;;
29432;SDS011;16405;53.964;13.448;2024-02-28T05:14:01;100.70;;;13.55;;
29432;SDS011;16405;53.964;13.448;2024-02-28T05:16:26;77.85;;;12.20;;
29432;SDS011;16405;53.964;13.448;2024-02-28T05:18:52;82.40;;;13.63;;
29432;SDS011;16405;53.964;13.448;2024-02-28T05:21:18;73.18;;;12.25;;
29432;SDS011;16405;53.964;13.448;2024-02-28T05:23:52;68.97;;;10.65;;
29432;SDS011;16405;53.964;13.448;2024-02-28T05:26:18;54.92;;;10.07;;
29432;SDS011;16405;53.964;13.448;2024-02-28T05:28:43;64.05;;;10.70;;
29432;SDS011;16405;53.964;13.448;2024-02-28T05:31:22;54.28;;;9.15;;
29432;SDS011;16405;53.964;13.448;2024-02-28T05:33:54;56.35;;;10.60;;
29432;SDS011;16405;53.964;13.448;2024-02-28T05:36:25;50.97;;;9.88;;
29432;SDS011;16405;53.964;13.448;2024-02-28T05:38:55;47.33;;;9.57;;
29432;SDS011;16405;53.964;13.448;2024-02-28T05:41:30;50.13;;;10.05;;
29432;SDS011;16405;53.964;13.448;2024-02-28T05:43:56;45.95;;;9.85;;
29432;SDS011;16405;53.964;13.448;2024-02-28T05:46:22;54.17;;;9.80;;
29432;SDS011;16405;53.964;13.448;2024-02-28T05:48:55;51.55;;;9.32;;
29432;SDS011;16405;53.964;13.448;2024-02-28T05:51:21;43.15;;;9.00;;
29432;SDS011;16405;53.964;13.448;2024-02-28T05:53:47;52.10;;;9.88;;
29432;SDS011;16405;53.964;13.448;2024-02-28T05:56:18;63.75;;;11.20;;
29432;SDS011;16405;53.964;13.448;2024-02-28T05:58:47;55.88;;;11.95;;
29432;SDS011;16405;53.964;13.448;2024-02-28T06:01:16;54.33;;;12.00;;
29432;SDS011;16405;53.964;13.448;2024-02-28T06:03:45;50.40;;;10.80;;
29432;SDS011;16405;53.964;13.448;2024-02-28T06:06:16;50.33;;;11.25;;
29432;SDS011;16405;53.964;13.448;2024-02-28T06:08:42;52.45;;;10.35;;
29432;SDS011;16405;53.964;13.448;2024-02-28T06:11:09;60.38;;;10.35;;
29432;SDS011;16405;53.964;13.448;2024-02-28T06:13:35;62.83;;;11.00;;
29432;SDS011;16405;53.964;13.448;2024-02-28T06:16:13;56.73;;;11.47;;
29432;SDS011;16405;53.964;13.448;2024-02-28T06:18:43;56.47;;;12.23;;
29432;SDS011;16405;53.964;13.448;2024-02-28T06:21:11;57.88;;;11.90;;
29432;SDS011;16405;53.964;13.448;2024-02-28T06:23:38;70.90;;;13.65;;
29432;SDS011;16405;53.964;13.448;2024-02-28T06:26:04;46.17;;;10.30;;
29432;SDS011;16405;53.964;13.448;2024-02-28T06:28:30;50.85;;;10.60;;
29432;SDS011;16405;53.964;13.448;2024-02-28T06:30:59;46.17;;;11.38;;
29432;SDS011;16405;53.964;13.448;2024-02-28T06:33:28;52.88;;;11.63;;
29432;SDS011;16405;53.964;13.448;2024-02-28T06:35:54;43.33;;;9.82;;
29432;SDS011;16405;53.964;13.448;2024-02-28T06:38:20;36.72;;;8.93;;
29432;SDS011;16405;53.964;13.448;2024-02-28T06:40:45;38.53;;;8.73;;
29432;SDS011;16405;53.964;13.448;2024-02-28T06:43:11;35.80;;;7.97;;
29432;SDS011;16405;53.964;13.448;2024-02-28T06:45:42;32.00;;;7.85;;
29432;SDS011;16405;53.964;13.448;2024-02-28T06:48:17;40.60;;;7.88;;
29432;SDS011;16405;53.964;13.448;2024-02-28T06:50:42;29.20;;;7.65;;
29432;SDS011;16405;53.964;13.448;2024-02-28T06:53:17;35.35;;;7.43;;
29432;SDS011;16405;53.964;13.448;2024-02-28T06:55:43;27.17;;;6.32;;
29432;SDS011;16405;53.964;13.448;2024-02-28T06:58:10;25.48;;;6.25;;
29432;SDS011;16405;53.964;13.448;2024-02-28T07:00:36;22.23;;;5.22;;
29432;SDS011;16405;53.964;13.448;2024-02-28T07:03:12;20.52;;;5.53;;
29432;SDS011;16405;53.964;13.448;2024-02-28T07:05:38;21.02;;;4.38;;
29432;SDS011;16405;53.964;13.448;2024-02-28T07:08:04;18.83;;;4.90;;
29432;SDS011;16405;53.964;13.448;2024-02-28T07:10:39;16.80;;;5.32;;
29432;SDS011;16405;53.964;13.448;2024-02-28T07:13:08;20.02;;;5.32;;
29432;SDS011;16405;53.964;13.448;2024-02-28T07:15:41;14.65;;;4.35;;
29432;SDS011;16405;53.964;13.448;2024-02-28T07:18:08;17.85;;;4.78;;
29432;SDS011;16405;53.964;13.448;2024-02-28T07:20:34;18.10;;;5.15;;
29432;SDS011;16405;53.964;13.448;2024-02-28T07:23:00;18.63;;;5.20;;
29432;SDS011;16405;53.964;13.448;2024-02-28T07:25:35;20.08;;;4.97;;
29432;SDS011;16405;53.964;13.448;2024-02-28T07:28:03;18.00;;;5.25;;
29432;SDS011;16405;53.964;13.448;2024-02-28T07:30:36;20.10;;;6.25;;
29432;SDS011;16405;53.964;13.448;2024-02-28T07:33:02;22.00;;;6.15;;
29432;SDS011;16405;53.964;13.448;2024-02-28T07:35:30;24.63;;;6.30;;
29432;SDS011;16405;53.964;13.448;2024-02-28T07:37:56;18.83;;;6.00;;
29432;SDS011;16405;53.964;13.448;2024-02-28T07:40:27;21.33;;;6.22;;
29432;SDS011;16405;53.964;13.448;2024-02-28T07:42:53;17.98;;;5.57;;
29432;SDS011;16405;53.964;13.448;2024-02-28T07:45:19;19.65;;;6.18;;
29432;SDS011;16405;53.964;13.448;2024-02-28T07:47:45;23.40;;;6.57;;
29432;SDS011;16405;53.964;13.448;2024-02-28T07:50:10;17.88;;;5.63;;
29432;SDS011;16405;53.964;13.448;2024-02-28T07:52:44;21.67;;;6.45;;
29432;SDS011;16405;53.964;13.448;2024-02-28T07:55:10;20.90;;;7.05;;
29432;SDS011;16405;53.964;13.448;2024-02-28T07:57:36;22.90;;;7.43;;
29432;SDS011;16405;53.964;13.448;2024-02-28T08:00:02;25.23;;;7.00;;
29432;SDS011;16405;53.964;13.448;2024-02-28T08:02:31;18.75;;;6.60;;
29432;SDS011;16405;53.964;13.448;2024-02-28T08:04:59;18.00;;;6.30;;
29432;SDS011;16405;53.964;13.448;2024-02-28T08:07:25;25.73;;;7.32;;
29432;SDS011;16405;53.964;13.448;2024-02-28T08:09:51;28.75;;;8.25;;
29432;SDS011;16405;53.964;13.448;2024-02-28T08:12:17;20.45;;;7.45;;
29432;SDS011;16405;53.964;13.448;2024-02-28T08:14:51;28.10;;;8.27;;
29432;SDS011;16405;53.964;13.448;2024-02-28T08:17:17;27.83;;;8.80;;
29432;SDS011;16405;53.964;13.448;2024-02-28T08:19:45;29.17;;;8.55;;
29432;SDS011;16405;53.964;13.448;2024-02-28T08:22:11;31.30;;;9.23;;
29432;SDS011;16405;53.964;13.448;2024-02-28T08:24:45;30.33;;;9.10;;
29432;SDS011;16405;53.964;13.448;2024-02-28T08:27:11;28.50;;;9.13;;
29432;SDS011;16405;53.964;13.448;2024-02-28T08:29:40;27.27;;;8.05;;
29432;SDS011;16405;53.964;13.448;2024-02-28T08:32:13;25.15;;;8.70;;
29432;SDS011;16405;53.964;13.448;2024-02-28T08:34:43;25.02;;;8.07;;
29432;SDS011;16405;53.964;13.448;2024-02-28T08:37:13;31.17;;;9.98;;
29432;SDS011;16405;53.964;13.448;2024-02-28T08:39:42;26.88;;;8.82;;
29432;SDS011;16405;53.964;13.448;2024-02-28T08:42:07;26.95;;;8.07;;
29432;SDS011;16405;53.964;13.448;2024-02-28T08:44:33;28.50;;;8.73;;
29432;SDS011;16405;53.964;13.448;2024-02-28T08:46:59;31.27;;;9.27;;
29432;SDS011;16405;53.964;13.448;2024-02-28T08:49:32;29.45;;;9.13;;
29432;SDS011;16405;53.964;13.448;2024-02-28T08:51:58;23.10;;;8.02;;
29432;SDS011;16405;53.964;13.448;2024-02-28T08:54:24;20.30;;;7.50;;
29432;SDS011;16405;53.964;13.448;2024-02-28T08:56:50;22.40;;;7.57;;
29432;SDS011;16405;53.964;13.448;2024-02-28T08:59:25;20.50;;;7.60;;
29432;SDS011;16405;53.964;13.448;2024-02-28T09:01:51;27.90;;;8.57;;
29432;SDS011;16405;53.964;13.448;2024-02-28T09:04:20;18.20;;;6.43;;
29432;SDS011;16405;53.964;13.448;2024-02-28T09:06:51;23.38;;;7.35;;
29432;SDS011;16405;53.964;13.448;2024-02-28T09:09:20;25.88;;;7.70;;
29432;SDS011;16405;53.964;13.448;2024-02-28T09:11:46;25.70;;;7.30;;
29432;SDS011;16405;53.964;13.448;2024-02-28T09:14:13;32.42;;;9.75;;
29432;SDS011;16405;53.964;13.448;2024-02-28T09:16:45;26.48;;;7.00;;
29432;SDS011;16405;53.964;13.448;2024-02-28T09:19:12;21.38;;;7.32;;
29432;SDS011;16405;53.964;13.448;2024-02-28T09:21:39;31.08;;;9.57;;
29432;SDS011;16405;53.964;13.448;2024-02-28T09:24:14;12.68;;;4.88;;
29432;SDS011;16405;53.964;13.448;2024-02-28T09:26:43;10.27;;;4.27;;
29432;SDS011;16405;53.964;13.448;2024-02-28T09:29:17;6.70;;;3.40;;
29432;SDS011;16405;53.964;13.448;2024-02-28T09:31:43;21.00;;;7.50;;
29432;SDS011;16405;53.964;13.448;2024-02-28T09:34:09;12.95;;;5.65;;
29432;SDS011;16405;53.964;13.448;2024-02-28T09:36:45;20.80;;;7.55;;
29432;SDS011;16405;53.964;13.448;2024-02-28T09:39:16;18.88;;;7.05;;
29432;SDS011;16405;53.964;13.448;2024-02-28T09:41:47;15.77;;;6.43;;
29432;SDS011;16405;53.964;13.448;2024-02-28T09:44:16;14.15;;;4.63;;
29432;SDS011;16405;53.964;13.448;2024-02-28T09:46:55;19.05;;;6.70;;
29432;SDS011;16405;53.964;13.448;2024-02-28T09:49:49;11.32;;;5.07;;
29432;SDS011;16405;53.964;13.448;2024-02-28T09:52:17;13.77;;;5.68;;
29432;SDS011;16405;53.964;13.448;2024-02-28T09:54:43;19.70;;;6.78;;
29432;SDS011;16405;53.964;13.448;2024-02-28T09:57:15;14.80;;;5.78;;
29432;SDS011;16405;53.964;13.448;2024-02-28T09:59:43;22.92;;;8.48;;
29432;SDS011;16405;53.964;13.448;2024-02-28T10:02:10;24.60;;;7.95;;
29432;SDS011;16405;53.964;13.448;2024-02-28T10:04:49;26.27;;;8.82;;
29432;SDS011;16405;53.964;13.448;2024-02-28T10:07:15;26.23;;;7.57;;
29432;SDS011;16405;53.964;13.448;2024-02-28T10:09:53;24.67;;;8.70;;
29432;SDS011;16405;53.964;13.448;2024-02-28T10:12:20;27.95;;;8.65;;
29432;SDS011;16405;53.964;13.448;2024-02-28T10:14:52;30.17;;;9.93;;
29432;SDS011;16405;53.964;13.448;2024-02-28T10:17:31;29.92;;;9.85;;
29432;SDS011;16405;53.964;13.448;2024-02-28T10:19:58;28.17;;;9.35;;
29432;SDS011;16405;53.964;13.448;2024-02-28T10:22:35;31.80;;;9.90;;
29432;SDS011;16405;53.964;13.448;2024-02-28T10:25:02;29.33;;;10.35;;
29432;SDS011;16405;53.964;13.448;2024-02-28T10:27:39;27.13;;;10.23;;
29432;SDS011;16405;53.964;13.448;2024-02-28T10:30:11;31.98;;;10.55;;
29432;SDS011;16405;53.964;13.448;2024-02-28T10:32:47;27.85;;;9.30;;
29432;SDS011;16405;53.964;13.448;2024-02-28T10:38:10;25.90;;;9.43;;
29432;SDS011;16405;53.964;13.448;2024-02-28T10:41:01;26.05;;;9.15;;
29432;SDS011;16405;53.964;13.448;2024-02-28T10:43:31;25.58;;;9.93;;
29432;SDS011;16405;53.964;13.448;2024-02-28T10:46:02;24.35;;;9.23;;
29432;SDS011;16405;53.964;13.448;2024-02-28T10:48:34;26.27;;;9.77;;
29432;SDS011;16405;53.964;13.448;2024-02-28T10:51:00;23.52;;;8.80;;
29432;SDS011;16405;53.964;13.448;2024-02-28T10:53:41;25.75;;;9.23;;
29432;SDS011;16405;53.964;13.448;2024-02-28T10:56:19;25.85;;;9.52;;
29432;SDS011;16405;53.964;13.448;2024-02-28T10:59:11;28.27;;;10.85;;
29432;SDS011;16405;53.964;13.448;2024-02-28T11:01:48;27.50;;;9.85;;
29432;SDS011;16405;53.964;13.448;2024-02-28T11:04:16;24.50;;;9.43;;
29432;SDS011;16405;53.964;13.448;2024-02-28T11:06:51;22.23;;;8.70;;
29432;SDS011;16405;53.964;13.448;2024-02-28T11:09:33;22.65;;;9.00;;
29432;SDS011;16405;53.964;13.448;2024-02-28T11:12:27;22.88;;;8.82;;
29432;SDS011;16405;53.964;13.448;2024-02-28T11:15:00;17.88;;;7.70;;
29432;SDS011;16405;53.964;13.448;2024-02-28T11:17:33;21.27;;;8.43;;
29432;SDS011;16405;53.964;13.448;2024-02-28T11:23:00;19.85;;;8.52;;
29432;SDS011;16405;53.964;13.448;2024-02-28T11:25:35;18.83;;;7.80;;
29432;SDS011;16405;53.964;13.448;2024-02-28T11:28:11;15.95;;;7.35;;
29432;SDS011;16405;53.964;13.448;2024-02-28T11:30:40;15.07;;;7.38;;
29432;SDS011;16405;53.964;13.448;2024-02-28T11:33:07;16.33;;;7.70;;
29432;SDS011;16405;53.964;13.448;2024-02-28T11:35:41;16.52;;;8.30;;
29432;SDS011;16405;53.964;13.448;2024-02-28T11:38:07;17.23;;;7.55;;
29432;SDS011;16405;53.964;13.448;2024-02-28T11:40:46;18.63;;;7.70;;
29432;SDS011;16405;53.964;13.448;2024-02-28T11:43:17;16.60;;;8.23;;
29432;SDS011;16405;53.964;13.448;2024-02-28T11:45:56;16.40;;;7.43;;
29432;SDS011;16405;53.964;13.448;2024-02-28T11:48:28;19.40;;;8.23;;
29432;SDS011;16405;53.964;13.448;2024-02-28T11:50:58;17.02;;;7.55;;
29432;SDS011;16405;53.964;13.448;2024-02-28T11:53:39;17.73;;;8.10;;
29432;SDS011;16405;53.964;13.448;2024-02-28T11:56:21;18.67;;;8.57;;
29432;SDS011;16405;53.964;13.448;2024-02-28T11:58:59;20.05;;;8.68;;
29432;SDS011;16405;53.964;13.448;2024-02-28T12:04:16;16.17;;;7.78;;
29432;SDS011;16405;53.964;13.448;2024-02-28T12:06:42;20.55;;;8.80;;
29432;SDS011;16405;53.964;13.448;2024-02-28T12:09:16;16.63;;;7.72;;
29432;SDS011;16405;53.964;13.448;2024-02-28T12:11:45;19.58;;;8.80;;
29432;SDS011;16405;53.964;13.448;2024-02-28T12:14:19;18.88;;;8.48;;
29432;SDS011;16405;53.964;13.448;2024-02-28T12:16:45;17.05;;;8.30;;
29432;SDS011;16405;53.964;13.448;2024-02-28T12:19:42;18.60;;;8.07;;
29432;SDS011;16405;53.964;13.448;2024-02-28T12:22:08;18.92;;;8.80;;
29432;SDS011;16405;53.964;13.448;2024-02-28T12:24:58;16.25;;;8.05;;
29432;SDS011;16405;53.964;13.448;2024-02-28T12:30:04;16.52;;;8.35;;
29432;SDS011;16405;53.964;13.448;2024-02-28T12:32:31;18.13;;;9.15;;
29432;SDS011;16405;53.964;13.448;2024-02-28T12:34:57;17.85;;;9.00;;
29432;SDS011;16405;53.964;13.448;2024-02-28T12:37:35;17.65;;;8.90;;
29432;SDS011;16405;53.964;13.448;2024-02-28T12:40:01;17.95;;;8.60;;
29432;SDS011;16405;53.964;13.448;2024-02-28T12:42:38;17.10;;;8.60;;
29432;SDS011;16405;53.964;13.448;2024-02-28T12:45:04;18.00;;;8.02;;
29432;SDS011;16405;53.964;13.448;2024-02-28T12:47:30;17.13;;;8.10;;
29432;SDS011;16405;53.964;13.448;2024-02-28T12:50:11;14.73;;;8.20;;
29432;SDS011;16405;53.964;13.448;2024-02-28T12:52:43;17.98;;;8.88;;
29432;SDS011;16405;53.964;13.448;2024-02-28T12:55:09;16.52;;;8.15;;
29432;SDS011;16405;53.964;13.448;2024-02-28T12:57:35;16.45;;;8.85;;
29432;SDS011;16405;53.964;13.448;2024-02-28T13:00:01;14.35;;;8.02;;
29432;SDS011;16405;53.964;13.448;2024-02-28T13:02:30;18.50;;;9.73;;
29432;SDS011;16405;53.964;13.448;2024-02-28T13:05:05;19.02;;;9.40;;
29432;SDS011;16405;53.964;13.448;2024-02-28T13:07:32;19.63;;;9.88;;
29432;SDS011;16405;53.964;13.448;2024-02-28T13:10:07;17.73;;;9.32;;
29432;SDS011;16405;53.964;13.448;2024-02-28T13:12:34;20.25;;;12.15;;
29432;SDS011;16405;53.964;13.448;2024-02-28T13:15:00;22.00;;;12.85;;
29432;SDS011;16405;53.964;13.448;2024-02-28T13:17:32;19.20;;;10.65;;
29432;SDS011;16405;53.964;13.448;2024-02-28T13:19:58;20.75;;;12.20;;
29432;SDS011;16405;53.964;13.448;2024-02-28T13:22:24;23.58;;;13.10;;
29432;SDS011;16405;53.964;13.448;2024-02-28T13:24:50;19.63;;;11.93;;
29432;SDS011;16405;53.964;13.448;2024-02-28T13:27:16;24.20;;;12.75;;
29432;SDS011;16405;53.964;13.448;2024-02-28T13:29:51;25.45;;;13.23;;
29432;SDS011;16405;53.964;13.448;2024-02-28T13:32:16;22.77;;;13.52;;
29432;SDS011;16405;53.964;13.448;2024-02-28T13:34:42;23.13;;;12.95;;
29432;SDS011;16405;53.964;13.448;2024-02-28T13:37:08;25.80;;;14.20;;
29432;SDS011;16405;53.964;13.448;2024-02-28T13:39:40;27.83;;;13.82;;
29432;SDS011;16405;53.964;13.448;2024-02-28T13:42:05;24.85;;;14.48;;
29432;SDS011;16405;53.964;13.448;2024-02-28T13:44:34;23.92;;;13.30;;
29432;SDS011;16405;53.964;13.448;2024-02-28T13:47:03;23.65;;;13.93;;
29432;SDS011;16405;53.964;13.448;2024-02-28T13:49:32;24.88;;;13.52;;
29432;SDS011;16405;53.964;13.448;2024-02-28T13:51:58;25.17;;;14.18;;
29432;SDS011;16405;53.964;13.448;2024-02-28T13:54:24;26.48;;;14.43;;
29432;SDS011;16405;53.964;13.448;2024-02-28T13:56:50;23.80;;;13.32;;
29432;SDS011;16405;53.964;13.448;2024-02-28T13:59:16;27.17;;;13.98;;
29432;SDS011;16405;53.964;13.448;2024-02-28T14:01:49;24.05;;;14.57;;
29432;SDS011;16405;53.964;13.448;2024-02-28T14:04:15;27.33;;;15.70;;
29432;SDS011;16405;53.964;13.448;2024-02-28T14:06:41;26.15;;;14.68;;
29432;SDS011;16405;53.964;13.448;2024-02-28T14:09:07;26.35;;;14.88;;
29432;SDS011;16405;53.964;13.448;2024-02-28T14:11:41;28.25;;;14.48;;
29432;SDS011;16405;53.964;13.448;2024-02-28T14:14:07;26.17;;;15.60;;
29432;SDS011;16405;53.964;13.448;2024-02-28T14:16:33;25.08;;;15.02;;
29432;SDS011;16405;53.964;13.448;2024-02-28T14:18:59;31.98;;;16.50;;
29432;SDS011;16405;53.964;13.448;2024-02-28T14:21:25;28.15;;;15.35;;
29432;SDS011;16405;53.964;13.448;2024-02-28T14:23:59;30.02;;;15.75;;
29432;SDS011;16405;53.964;13.448;2024-02-28T14:26:25;29.17;;;15.98;;
29432;SDS011;16405;53.964;13.448;2024-02-28T14:28:52;27.10;;;15.93;;
29432;SDS011;16405;53.964;13.448;2024-02-28T14:31:26;30.02;;;16.85;;
29432;SDS011;16405;53.964;13.448;2024-02-28T14:33:52;28.33;;;16.33;;